createdAt,value
2022-12-15T12:16:25.698Z,15.73
2022-12-15T12:19:05.559Z,16.00
2022-12-15T12:21:37.892Z,20.07
2022-12-15T12:24:16.775Z,17.13
2022-12-15T12:29:48.638Z,18.80
2022-12-15T12:32:32.652Z,17.43
2022-12-15T12:35:31.089Z,19.00
2022-12-15T12:38:04.985Z,20.30
2022-12-15T12:40:57.959Z,17.30
2022-12-15T12:43:35.524Z,15.30
2022-12-15T12:46:15.694Z,15.53
2022-12-15T12:48:56.473Z,17.80
2022-12-15T12:51:30.910Z,18.27
2022-12-15T12:54:01.347Z,16.17
2022-12-15T12:56:40.462Z,17.83
2022-12-15T12:59:40.180Z,18.23
2022-12-15T13:02:47.858Z,16.10
2022-12-15T13:05:35.784Z,14.73
2022-12-15T13:08:30.619Z,15.07
2022-12-15T13:11:38.483Z,15.20
2022-12-15T13:14:21.015Z,18.73
2022-12-15T13:17:24.894Z,15.40
2022-12-15T13:20:21.687Z,18.13
2022-12-15T13:22:51.754Z,16.43
2022-12-15T13:25:36.404Z,14.57
2022-12-15T13:28:32.868Z,15.03
2022-12-15T13:31:28.516Z,17.73
2022-12-15T13:34:02.399Z,15.93
2022-12-15T13:36:55.628Z,15.40
2022-12-15T13:39:57.560Z,11.93
2022-12-15T13:42:48.236Z,17.20
2022-12-15T13:45:51.277Z,15.97
2022-12-15T13:48:31.869Z,16.40
2022-12-15T13:51:22.999Z,17.43
2022-12-15T13:53:56.401Z,14.70
2022-12-15T13:56:50.756Z,15.50
2022-12-15T13:59:28.071Z,14.83
2022-12-15T14:01:55.892Z,17.70
2022-12-15T14:04:24.183Z,15.90
2022-12-15T14:06:54.764Z,13.93
2022-12-15T14:09:26.912Z,13.57
2022-12-15T14:11:56.663Z,16.47
2022-12-15T14:14:27.745Z,14.30
2022-12-15T14:17:03.815Z,15.70
2022-12-15T14:19:41.006Z,15.07
2022-12-15T14:22:27.595Z,14.63
2022-12-15T14:25:01.604Z,15.97
2022-12-15T14:27:33.470Z,17.03
2022-12-15T14:30:22.912Z,14.93
2022-12-15T14:32:55.606Z,15.87
2022-12-15T14:35:30.528Z,16.37
2022-12-15T14:38:01.897Z,17.63
2022-12-15T14:40:30.855Z,17.73
2022-12-15T14:43:00.590Z,17.07
2022-12-15T14:45:31.241Z,18.60
2022-12-15T14:50:49.712Z,18.93
2022-12-15T14:53:21.449Z,18.57
2022-12-15T14:55:49.648Z,19.43
2022-12-15T14:58:36.408Z,16.57
2022-12-15T15:01:07.259Z,15.13
2022-12-15T15:03:10.726Z,15.40
2022-12-15T15:03:38.318Z,15.40
2022-12-15T15:06:16.674Z,12.90
2022-12-15T15:08:48.159Z,14.10
2022-12-15T15:11:26.922Z,14.07
2022-12-15T15:13:57.857Z,12.90
2022-12-15T15:16:25.877Z,16.53
2022-12-15T15:18:56.119Z,19.67
2022-12-15T15:21:26.089Z,19.03
2022-12-15T15:24:01.593Z,17.60
2022-12-15T15:26:31.019Z,14.87
2022-12-15T15:29:00.455Z,16.33
2022-12-15T15:35:40.742Z,13.17
2022-12-15T15:38:31.060Z,13.17
2022-12-15T15:41:01.082Z,10.77
2022-12-15T15:43:29.609Z,13.90
2022-12-15T15:46:01.787Z,16.37
2022-12-15T15:48:33.110Z,15.43
2022-12-15T15:51:02.163Z,14.63
2022-12-15T15:53:33.001Z,14.07
2022-12-15T15:56:01.720Z,13.23
2022-12-15T15:58:29.984Z,13.73
2022-12-15T16:00:59.407Z,14.13
2022-12-15T16:03:27.372Z,13.57
2022-12-15T16:05:55.318Z,14.30
2022-12-15T16:08:27.444Z,14.13
2022-12-15T16:10:55.899Z,13.80
2022-12-15T16:13:26.324Z,13.97
2022-12-15T16:15:54.683Z,11.33
2022-12-15T16:18:23.870Z,12.60
2022-12-15T16:20:52.699Z,12.63
2022-12-15T16:23:24.090Z,16.13
2022-12-15T16:25:53.807Z,14.87
2022-12-15T16:28:23.637Z,15.03
2022-12-15T16:30:52.007Z,14.33
2022-12-15T16:33:20.247Z,14.00
2022-12-15T16:35:51.236Z,11.43
2022-12-15T16:38:24.165Z,11.37
2022-12-15T16:40:52.807Z,9.97
2022-12-15T16:43:28.899Z,11.37
2022-12-15T16:46:01.206Z,12.67
2022-12-15T16:48:29.459Z,12.67
2022-12-15T16:50:59.844Z,12.20
2022-12-15T16:53:29.931Z,13.67
2022-12-15T16:55:59.678Z,11.03
2022-12-15T16:58:29.623Z,10.57
2022-12-15T17:00:58.393Z,9.47
2022-12-15T17:03:27.685Z,9.13
2022-12-15T17:05:57.327Z,10.03
2022-12-15T17:08:30.345Z,10.03
2022-12-15T17:10:58.543Z,9.43
2022-12-15T17:13:39.105Z,9.57
2022-12-15T17:16:14.212Z,9.63
2022-12-15T17:18:42.989Z,8.53
2022-12-15T17:21:16.318Z,12.50
2022-12-15T17:23:49.237Z,17.20
2022-12-15T17:26:28.552Z,16.20
2022-12-15T17:29:00.922Z,15.23
2022-12-15T17:31:34.800Z,13.87
2022-12-15T17:34:20.866Z,14.50
2022-12-15T17:36:48.872Z,11.60
2022-12-15T17:39:19.928Z,11.17
2022-12-15T17:42:04.342Z,10.70
2022-12-15T17:44:37.294Z,11.47
2022-12-15T17:47:08.867Z,9.57
2022-12-15T17:49:38.287Z,9.17
2022-12-15T17:52:14.149Z,9.30
2022-12-15T17:54:43.339Z,8.63
2022-12-15T17:57:12.393Z,8.07
2022-12-15T17:59:40.298Z,9.67
2022-12-15T18:02:11.899Z,9.97
2022-12-15T18:04:39.997Z,10.33
2022-12-15T18:07:14.909Z,11.03
2022-12-15T18:09:44.093Z,11.73
2022-12-15T18:12:18.825Z,12.23
2022-12-15T18:14:46.665Z,15.10
2022-12-15T18:17:14.801Z,18.23
2022-12-15T18:19:42.527Z,23.23
2022-12-15T18:22:13.526Z,22.63
2022-12-15T18:24:41.380Z,24.97
2022-12-15T18:27:20.699Z,24.93
2022-12-15T18:29:48.413Z,23.87
2022-12-15T18:32:16.906Z,20.03
2022-12-15T18:34:44.970Z,18.80
2022-12-15T18:37:16.526Z,15.80
2022-12-15T18:39:44.278Z,16.17
2022-12-15T18:42:17.848Z,17.27
2022-12-15T18:44:49.947Z,15.83
2022-12-15T18:47:19.619Z,17.20
2022-12-15T18:49:47.507Z,18.23
2022-12-15T18:52:18.724Z,16.80
2022-12-15T18:54:47.864Z,15.67
2022-12-15T18:57:28.424Z,16.33
2022-12-15T18:59:58.887Z,13.17
2022-12-15T19:02:26.783Z,12.80
2022-12-15T19:04:54.771Z,11.80
2022-12-15T19:07:22.677Z,12.43
2022-12-15T19:09:50.802Z,12.37
2022-12-15T19:12:19.108Z,11.57
2022-12-15T19:14:50.132Z,11.07
2022-12-15T19:17:37.011Z,11.60
2022-12-15T19:20:25.710Z,13.27
2022-12-15T19:22:53.767Z,11.27
2022-12-15T19:25:26.268Z,12.13
2022-12-15T19:27:58.766Z,12.27
2022-12-15T19:30:29.753Z,13.00
2022-12-15T19:32:58.212Z,10.83
2022-12-15T19:35:27.327Z,11.63
2022-12-15T19:37:57.862Z,11.07
2022-12-15T19:40:28.349Z,11.60
2022-12-15T19:42:56.311Z,11.47
2022-12-15T19:45:26.121Z,10.40
2022-12-15T19:47:55.502Z,12.90
2022-12-15T19:50:24.573Z,14.27
2022-12-15T19:52:55.857Z,15.80
2022-12-15T19:55:27.946Z,15.77
2022-12-15T19:57:55.788Z,17.50
2022-12-15T20:00:24.796Z,18.17
2022-12-15T20:02:54.845Z,16.07
2022-12-15T20:05:25.601Z,17.40
2022-12-15T20:07:54.653Z,15.13
2022-12-15T20:10:29.464Z,17.30
2022-12-15T20:12:59.662Z,16.13
2022-12-15T20:15:27.431Z,15.70
2022-12-15T20:17:56.895Z,14.80
2022-12-15T20:20:37.911Z,14.37
2022-12-15T20:23:11.941Z,12.33
2022-12-15T20:25:41.338Z,15.37
2022-12-15T20:28:15.778Z,13.43
2022-12-15T20:30:44.098Z,14.20
2022-12-15T20:33:13.113Z,12.90
2022-12-15T20:35:43.177Z,14.03
2022-12-15T20:38:24.867Z,13.17
2022-12-15T20:40:52.839Z,11.43
2022-12-15T20:43:22.607Z,10.10
2022-12-15T20:46:02.933Z,10.17
2022-12-15T20:48:31.216Z,11.13
2022-12-15T20:51:04.346Z,9.80
2022-12-15T20:53:35.698Z,9.13
2022-12-15T20:56:03.742Z,10.43
2022-12-15T20:58:33.352Z,12.33
2022-12-15T21:01:01.527Z,10.43
2022-12-15T21:03:34.009Z,9.87
2022-12-15T21:06:03.244Z,9.83
2022-12-15T21:08:32.527Z,10.80
2022-12-15T21:11:03.401Z,9.10
2022-12-15T21:13:35.417Z,11.40
2022-12-15T21:16:03.544Z,9.43
2022-12-15T21:21:25.364Z,11.00
2022-12-15T21:23:53.203Z,11.83
2022-12-15T21:26:24.311Z,17.43
2022-12-15T21:28:55.775Z,17.53
2022-12-15T21:31:24.696Z,14.63
2022-12-15T21:33:52.784Z,14.17
2022-12-15T21:36:23.966Z,15.13
2022-12-15T21:38:53.177Z,15.53
2022-12-15T21:41:24.068Z,16.40
2022-12-15T21:43:51.795Z,16.57
2022-12-15T21:49:18.229Z,13.37
2022-12-15T21:51:51.916Z,15.17
2022-12-15T21:54:24.723Z,14.13
2022-12-15T21:56:55.280Z,11.67
2022-12-15T21:59:26.174Z,13.30
2022-12-15T22:01:55.305Z,12.60
2022-12-15T22:04:29.213Z,11.70
2022-12-15T22:06:58.556Z,10.60
2022-12-15T22:09:26.391Z,12.20
2022-12-15T22:11:56.784Z,11.80
2022-12-15T22:14:26.988Z,12.20
2022-12-15T22:16:55.176Z,11.67
2022-12-15T22:19:23.900Z,10.50
2022-12-15T22:21:52.059Z,8.57
2022-12-15T22:24:21.363Z,11.40
2022-12-15T22:26:49.304Z,11.27
2022-12-15T22:29:19.693Z,9.33
2022-12-15T22:31:47.914Z,11.40
2022-12-15T22:34:17.461Z,10.37
2022-12-15T22:36:45.788Z,9.40
2022-12-15T22:39:14.993Z,10.60
2022-12-15T22:41:46.332Z,10.73
2022-12-15T22:44:19.145Z,9.67
2022-12-15T22:46:47.550Z,11.83
2022-12-15T22:49:18.965Z,10.37
2022-12-15T22:51:47.099Z,10.00
2022-12-15T22:54:19.890Z,9.03
2022-12-15T22:56:51.680Z,7.30
2022-12-15T22:59:24.512Z,10.37
2022-12-15T23:01:52.547Z,8.67
2022-12-15T23:04:20.325Z,11.00
2022-12-15T23:06:48.612Z,9.77
2022-12-15T23:09:16.341Z,9.97
2022-12-15T23:11:43.966Z,8.73
2022-12-15T23:14:14.929Z,9.27
2022-12-15T23:16:42.427Z,8.83
2022-12-15T23:19:23.480Z,10.20
2022-12-15T23:21:51.230Z,12.03
2022-12-15T23:24:19.519Z,11.53
2022-12-15T23:26:47.296Z,12.53
2022-12-15T23:29:16.579Z,14.37
2022-12-15T23:31:44.392Z,12.97
2022-12-15T23:34:12.389Z,15.90
2022-12-15T23:36:40.083Z,14.73
2022-12-15T23:39:07.781Z,16.87
2022-12-15T23:41:36.281Z,21.33
2022-12-15T23:44:04.030Z,23.00
2022-12-15T23:46:33.954Z,18.30
2022-12-15T23:49:01.764Z,12.70
2022-12-15T23:51:29.507Z,18.00
2022-12-15T23:53:57.263Z,16.53
2022-12-15T23:56:25.589Z,15.40
2022-12-15T23:58:56.788Z,15.37
